Terminal Aerodrome Forecast
Issued by NWS

Home | Current Version | Previous Version | Graphics & Text | Print | Product List | Glossary On
Versions: 1 2 3 4 5 6 7 8 9 10 11 12 13 14 15 16 17 18 19 20 21 22 23 24 25 26 27 28 29 30 31 32 33 34
885
FTUS45 KGGW 032154 AAA
TAFOLF
TAF AMD
KOLF 032154Z 0322/0418 27013G19KT P6SM VCSH SCT040 BKN060
      TEMPO 0322/0324 3SM -SHSN OVC025
     FM040000 28009KT P6SM SCT020
     FM040900 25006KT 4SM BR BKN030
     FM041500 24005KT P6SM BKN040=

USA.gov is the U.S. government's official web portal to all federal, state and local government web resources and services.